sensor_id;sensor_type;location;lat;lon;timestamp;P1;durP1;ratioP1;P2;durP2;ratioP2
787;SDS011;16074;42.708;23.312;2024-01-11T00:01:44;24.05;;;12.32;;
787;SDS011;16074;42.708;23.312;2024-01-11T00:04:11;28.63;;;12.50;;
787;SDS011;16074;42.708;23.312;2024-01-11T00:06:40;19.65;;;11.90;;
787;SDS011;16074;42.708;23.312;2024-01-11T00:09:07;25.50;;;12.98;;
787;SDS011;16074;42.708;23.312;2024-01-11T00:11:33;29.42;;;13.73;;
787;SDS011;16074;42.708;23.312;2024-01-11T00:13:58;22.93;;;12.87;;
787;SDS011;16074;42.708;23.312;2024-01-11T00:16:23;33.10;;;13.38;;
787;SDS011;16074;42.708;23.312;2024-01-11T00:18:48;31.20;;;17.27;;
787;SDS011;16074;42.708;23.312;2024-01-11T00:21:14;36.03;;;17.98;;
787;SDS011;16074;42.708;23.312;2024-01-11T00:23:39;30.48;;;14.35;;
787;SDS011;16074;42.708;23.312;2024-01-11T00:26:05;29.07;;;14.43;;
787;SDS011;16074;42.708;23.312;2024-01-11T00:28:30;25.92;;;14.82;;
787;SDS011;16074;42.708;23.312;2024-01-11T00:30:55;36.67;;;16.92;;
787;SDS011;16074;42.708;23.312;2024-01-11T00:33:21;34.20;;;15.88;;
787;SDS011;16074;42.708;23.312;2024-01-11T00:35:46;33.10;;;16.37;;
787;SDS011;16074;42.708;23.312;2024-01-11T00:38:12;30.17;;;15.85;;
787;SDS011;16074;42.708;23.312;2024-01-11T00:40:37;26.67;;;14.67;;
787;SDS011;16074;42.708;23.312;2024-01-11T00:43:02;24.50;;;14.33;;
787;SDS011;16074;42.708;23.312;2024-01-11T00:45:28;31.92;;;15.05;;
787;SDS011;16074;42.708;23.312;2024-01-11T00:47:53;31.05;;;15.60;;
787;SDS011;16074;42.708;23.312;2024-01-11T00:50:18;34.33;;;15.15;;
787;SDS011;16074;42.708;23.312;2024-01-11T00:52:44;27.15;;;15.77;;
787;SDS011;16074;42.708;23.312;2024-01-11T00:55:10;25.88;;;15.10;;
787;SDS011;16074;42.708;23.312;2024-01-11T00:57:35;23.20;;;14.07;;
787;SDS011;16074;42.708;23.312;2024-01-11T01:00:00;26.55;;;12.77;;
787;SDS011;16074;42.708;23.312;2024-01-11T01:02:26;22.37;;;12.17;;
787;SDS011;16074;42.708;23.312;2024-01-11T01:04:51;21.17;;;12.40;;
787;SDS011;16074;42.708;23.312;2024-01-11T01:07:16;22.05;;;12.85;;
787;SDS011;16074;42.708;23.312;2024-01-11T01:09:42;25.27;;;12.88;;
787;SDS011;16074;42.708;23.312;2024-01-11T01:12:07;24.30;;;10.65;;
787;SDS011;16074;42.708;23.312;2024-01-11T01:14:32;24.27;;;11.63;;
787;SDS011;16074;42.708;23.312;2024-01-11T01:16:58;14.43;;;8.90;;
787;SDS011;16074;42.708;23.312;2024-01-11T01:19:23;16.63;;;9.35;;
787;SDS011;16074;42.708;23.312;2024-01-11T01:21:49;19.75;;;9.48;;
787;SDS011;16074;42.708;23.312;2024-01-11T01:24:14;20.52;;;9.60;;
787;SDS011;16074;42.708;23.312;2024-01-11T01:26:40;16.73;;;9.00;;
787;SDS011;16074;42.708;23.312;2024-01-11T01:29:05;18.52;;;8.05;;
787;SDS011;16074;42.708;23.312;2024-01-11T01:31:30;13.60;;;9.57;;
787;SDS011;16074;42.708;23.312;2024-01-11T01:34:02;15.88;;;8.70;;
787;SDS011;16074;42.708;23.312;2024-01-11T01:36:28;14.23;;;7.40;;
787;SDS011;16074;42.708;23.312;2024-01-11T01:38:53;14.82;;;8.43;;
787;SDS011;16074;42.708;23.312;2024-01-11T01:41:18;10.53;;;6.63;;
787;SDS011;16074;42.708;23.312;2024-01-11T01:43:43;16.27;;;8.37;;
787;SDS011;16074;42.708;23.312;2024-01-11T01:46:09;15.40;;;7.53;;
787;SDS011;16074;42.708;23.312;2024-01-11T01:48:35;16.33;;;8.40;;
787;SDS011;16074;42.708;23.312;2024-01-11T01:51:01;18.35;;;9.27;;
787;SDS011;16074;42.708;23.312;2024-01-11T01:53:27;14.50;;;8.25;;
787;SDS011;16074;42.708;23.312;2024-01-11T01:55:53;17.42;;;9.38;;
787;SDS011;16074;42.708;23.312;2024-01-11T01:58:19;17.15;;;8.43;;
787;SDS011;16074;42.708;23.312;2024-01-11T02:00:46;19.58;;;8.43;;
787;SDS011;16074;42.708;23.312;2024-01-11T02:03:14;18.27;;;9.75;;
787;SDS011;16074;42.708;23.312;2024-01-11T02:05:41;21.15;;;10.38;;
787;SDS011;16074;42.708;23.312;2024-01-11T02:08:07;23.40;;;9.52;;
787;SDS011;16074;42.708;23.312;2024-01-11T02:10:37;17.95;;;9.55;;
787;SDS011;16074;42.708;23.312;2024-01-11T02:13:02;25.92;;;11.25;;
787;SDS011;16074;42.708;23.312;2024-01-11T02:15:29;19.15;;;9.77;;
787;SDS011;16074;42.708;23.312;2024-01-11T02:17:54;20.65;;;11.35;;
787;SDS011;16074;42.708;23.312;2024-01-11T02:20:19;20.87;;;10.50;;
787;SDS011;16074;42.708;23.312;2024-01-11T02:22:46;21.30;;;11.45;;
787;SDS011;16074;42.708;23.312;2024-01-11T02:25:15;24.50;;;11.57;;
787;SDS011;16074;42.708;23.312;2024-01-11T02:30:12;19.70;;;10.32;;
787;SDS011;16074;42.708;23.312;2024-01-11T02:32:38;22.02;;;12.05;;
787;SDS011;16074;42.708;23.312;2024-01-11T02:35:04;18.50;;;11.00;;
787;SDS011;16074;42.708;23.312;2024-01-11T02:37:30;24.70;;;11.38;;
787;SDS011;16074;42.708;23.312;2024-01-11T02:39:56;23.75;;;11.27;;
787;SDS011;16074;42.708;23.312;2024-01-11T02:42:21;20.13;;;10.13;;
787;SDS011;16074;42.708;23.312;2024-01-11T02:44:47;18.65;;;9.57;;
787;SDS011;16074;42.708;23.312;2024-01-11T02:47:12;21.17;;;10.70;;
787;SDS011;16074;42.708;23.312;2024-01-11T02:49:38;21.92;;;11.90;;
787;SDS011;16074;42.708;23.312;2024-01-11T02:52:03;28.88;;;13.20;;
787;SDS011;16074;42.708;23.312;2024-01-11T02:54:29;22.13;;;12.32;;
787;SDS011;16074;42.708;23.312;2024-01-11T02:56:54;23.77;;;10.70;;
787;SDS011;16074;42.708;23.312;2024-01-11T02:59:22;30.55;;;11.38;;
787;SDS011;16074;42.708;23.312;2024-01-11T03:01:48;18.45;;;11.55;;
787;SDS011;16074;42.708;23.312;2024-01-11T03:04:14;21.77;;;11.05;;
787;SDS011;16074;42.708;23.312;2024-01-11T03:06:39;20.17;;;11.15;;
787;SDS011;16074;42.708;23.312;2024-01-11T03:09:05;22.00;;;11.57;;
787;SDS011;16074;42.708;23.312;2024-01-11T03:11:31;24.83;;;11.48;;
787;SDS011;16074;42.708;23.312;2024-01-11T03:13:56;21.70;;;9.98;;
787;SDS011;16074;42.708;23.312;2024-01-11T03:16:21;18.23;;;9.80;;
787;SDS011;16074;42.708;23.312;2024-01-11T03:18:47;16.47;;;10.60;;
787;SDS011;16074;42.708;23.312;2024-01-11T03:21:12;17.27;;;9.95;;
787;SDS011;16074;42.708;23.312;2024-01-11T03:23:37;19.63;;;9.20;;
787;SDS011;16074;42.708;23.312;2024-01-11T03:26:03;20.65;;;10.57;;
787;SDS011;16074;42.708;23.312;2024-01-11T03:28:28;19.95;;;10.65;;
787;SDS011;16074;42.708;23.312;2024-01-11T03:30:54;14.45;;;8.82;;
787;SDS011;16074;42.708;23.312;2024-01-11T03:33:19;22.55;;;11.05;;
787;SDS011;16074;42.708;23.312;2024-01-11T03:35:45;20.43;;;8.73;;
787;SDS011;16074;42.708;23.312;2024-01-11T03:38:10;20.55;;;9.70;;
787;SDS011;16074;42.708;23.312;2024-01-11T03:40:36;16.48;;;10.50;;
787;SDS011;16074;42.708;23.312;2024-01-11T03:43:01;20.05;;;10.40;;
787;SDS011;16074;42.708;23.312;2024-01-11T03:45:26;23.20;;;11.45;;
787;SDS011;16074;42.708;23.312;2024-01-11T03:47:52;18.05;;;11.38;;
787;SDS011;16074;42.708;23.312;2024-01-11T03:50:17;18.43;;;9.37;;
787;SDS011;16074;42.708;23.312;2024-01-11T03:52:44;29.60;;;11.13;;
787;SDS011;16074;42.708;23.312;2024-01-11T03:55:10;21.50;;;9.85;;
787;SDS011;16074;42.708;23.312;2024-01-11T03:57:35;24.97;;;11.07;;
787;SDS011;16074;42.708;23.312;2024-01-11T04:00:01;24.13;;;10.95;;
787;SDS011;16074;42.708;23.312;2024-01-11T04:02:26;18.85;;;9.80;;
787;SDS011;16074;42.708;23.312;2024-01-11T04:04:51;14.52;;;10.30;;
787;SDS011;16074;42.708;23.312;2024-01-11T04:07:18;18.13;;;9.52;;
787;SDS011;16074;42.708;23.312;2024-01-11T04:09:44;17.08;;;9.98;;
787;SDS011;16074;42.708;23.312;2024-01-11T04:12:09;13.25;;;7.20;;
787;SDS011;16074;42.708;23.312;2024-01-11T04:14:38;18.30;;;8.57;;
787;SDS011;16074;42.708;23.312;2024-01-11T04:17:07;15.90;;;7.63;;
787;SDS011;16074;42.708;23.312;2024-01-11T04:19:32;12.05;;;7.18;;
787;SDS011;16074;42.708;23.312;2024-01-11T04:21:58;16.35;;;7.43;;
787;SDS011;16074;42.708;23.312;2024-01-11T04:24:23;15.82;;;9.15;;
787;SDS011;16074;42.708;23.312;2024-01-11T04:26:49;16.88;;;7.68;;
787;SDS011;16074;42.708;23.312;2024-01-11T04:29:14;16.20;;;7.47;;
787;SDS011;16074;42.708;23.312;2024-01-11T04:31:40;12.45;;;7.68;;
787;SDS011;16074;42.708;23.312;2024-01-11T04:34:05;15.70;;;9.07;;
787;SDS011;16074;42.708;23.312;2024-01-11T04:36:30;15.25;;;9.27;;
787;SDS011;16074;42.708;23.312;2024-01-11T04:38:56;9.07;;;6.10;;
787;SDS011;16074;42.708;23.312;2024-01-11T04:41:21;16.52;;;9.57;;
787;SDS011;16074;42.708;23.312;2024-01-11T04:43:47;30.38;;;11.20;;
787;SDS011;16074;42.708;23.312;2024-01-11T04:46:15;28.85;;;13.98;;
787;SDS011;16074;42.708;23.312;2024-01-11T04:48:42;28.02;;;14.23;;
787;SDS011;16074;42.708;23.312;2024-01-11T04:51:07;36.33;;;15.32;;
787;SDS011;16074;42.708;23.312;2024-01-11T04:53:35;40.08;;;17.48;;
787;SDS011;16074;42.708;23.312;2024-01-11T04:56:01;38.45;;;20.33;;
787;SDS011;16074;42.708;23.312;2024-01-11T04:58:27;38.17;;;20.65;;
787;SDS011;16074;42.708;23.312;2024-01-11T05:00:53;43.90;;;24.07;;
787;SDS011;16074;42.708;23.312;2024-01-11T05:03:18;44.42;;;26.38;;
787;SDS011;16074;42.708;23.312;2024-01-11T05:05:43;54.30;;;24.30;;
787;SDS011;16074;42.708;23.312;2024-01-11T05:08:09;49.75;;;21.70;;
787;SDS011;16074;42.708;23.312;2024-01-11T05:10:35;37.30;;;19.20;;
787;SDS011;16074;42.708;23.312;2024-01-11T05:13:01;33.35;;;16.20;;
787;SDS011;16074;42.708;23.312;2024-01-11T05:15:26;32.80;;;13.70;;
787;SDS011;16074;42.708;23.312;2024-01-11T05:17:51;26.30;;;12.90;;
787;SDS011;16074;42.708;23.312;2024-01-11T05:20:17;28.60;;;12.27;;
787;SDS011;16074;42.708;23.312;2024-01-11T05:22:42;22.05;;;12.13;;
787;SDS011;16074;42.708;23.312;2024-01-11T05:25:08;28.92;;;13.13;;
787;SDS011;16074;42.708;23.312;2024-01-11T05:27:33;22.45;;;13.18;;
787;SDS011;16074;42.708;23.312;2024-01-11T05:29:58;21.85;;;10.70;;
787;SDS011;16074;42.708;23.312;2024-01-11T05:32:24;25.00;;;11.45;;
787;SDS011;16074;42.708;23.312;2024-01-11T05:34:49;19.25;;;9.55;;
787;SDS011;16074;42.708;23.312;2024-01-11T05:37:14;21.93;;;11.30;;
787;SDS011;16074;42.708;23.312;2024-01-11T05:39:40;17.58;;;9.82;;
787;SDS011;16074;42.708;23.312;2024-01-11T05:42:06;23.38;;;10.13;;
787;SDS011;16074;42.708;23.312;2024-01-11T05:44:31;21.70;;;11.45;;
787;SDS011;16074;42.708;23.312;2024-01-11T05:46:57;20.70;;;10.27;;
787;SDS011;16074;42.708;23.312;2024-01-11T05:49:22;16.52;;;11.07;;
787;SDS011;16074;42.708;23.312;2024-01-11T05:51:48;17.00;;;9.13;;
787;SDS011;16074;42.708;23.312;2024-01-11T05:54:13;16.02;;;9.70;;
787;SDS011;16074;42.708;23.312;2024-01-11T05:56:38;14.00;;;9.37;;
787;SDS011;16074;42.708;23.312;2024-01-11T05:59:04;20.03;;;9.70;;
787;SDS011;16074;42.708;23.312;2024-01-11T06:01:29;18.73;;;10.20;;
787;SDS011;16074;42.708;23.312;2024-01-11T06:03:54;18.83;;;9.73;;
787;SDS011;16074;42.708;23.312;2024-01-11T06:06:23;21.10;;;11.18;;
787;SDS011;16074;42.708;23.312;2024-01-11T06:08:48;18.98;;;10.10;;
787;SDS011;16074;42.708;23.312;2024-01-11T06:11:14;22.60;;;11.88;;
787;SDS011;16074;42.708;23.312;2024-01-11T06:13:40;18.58;;;9.75;;
787;SDS011;16074;42.708;23.312;2024-01-11T06:16:06;29.17;;;14.73;;
787;SDS011;16074;42.708;23.312;2024-01-11T06:18:32;26.77;;;11.07;;
787;SDS011;16074;42.708;23.312;2024-01-11T06:20:58;25.77;;;14.07;;
787;SDS011;16074;42.708;23.312;2024-01-11T06:23:24;24.90;;;12.00;;
787;SDS011;16074;42.708;23.312;2024-01-11T06:25:50;30.98;;;13.35;;
787;SDS011;16074;42.708;23.312;2024-01-11T06:28:15;22.95;;;11.93;;
787;SDS011;16074;42.708;23.312;2024-01-11T06:30:41;27.20;;;13.07;;
787;SDS011;16074;42.708;23.312;2024-01-11T06:33:08;33.05;;;13.40;;
787;SDS011;16074;42.708;23.312;2024-01-11T06:35:33;28.80;;;14.23;;
787;SDS011;16074;42.708;23.312;2024-01-11T06:37:59;23.77;;;10.82;;
787;SDS011;16074;42.708;23.312;2024-01-11T06:40:25;24.93;;;11.37;;
787;SDS011;16074;42.708;23.312;2024-01-11T06:42:50;23.75;;;12.68;;
787;SDS011;16074;42.708;23.312;2024-01-11T06:45:15;27.93;;;14.27;;
787;SDS011;16074;42.708;23.312;2024-01-11T06:47:41;28.58;;;15.18;;
787;SDS011;16074;42.708;23.312;2024-01-11T06:50:06;24.67;;;15.70;;
787;SDS011;16074;42.708;23.312;2024-01-11T06:52:33;28.30;;;15.98;;
787;SDS011;16074;42.708;23.312;2024-01-11T06:54:58;36.92;;;16.60;;
787;SDS011;16074;42.708;23.312;2024-01-11T06:57:25;39.90;;;18.88;;
787;SDS011;16074;42.708;23.312;2024-01-11T06:59:51;45.65;;;21.38;;
787;SDS011;16074;42.708;23.312;2024-01-11T07:02:16;38.58;;;18.27;;
787;SDS011;16074;42.708;23.312;2024-01-11T07:04:45;32.30;;;18.50;;
787;SDS011;16074;42.708;23.312;2024-01-11T07:07:10;29.45;;;15.73;;
787;SDS011;16074;42.708;23.312;2024-01-11T07:09:36;32.17;;;16.80;;
787;SDS011;16074;42.708;23.312;2024-01-11T07:12:01;40.05;;;18.48;;
787;SDS011;16074;42.708;23.312;2024-01-11T07:14:27;42.95;;;20.42;;
787;SDS011;16074;42.708;23.312;2024-01-11T07:16:52;32.00;;;18.15;;
787;SDS011;16074;42.708;23.312;2024-01-11T07:19:17;45.50;;;20.58;;
787;SDS011;16074;42.708;23.312;2024-01-11T07:21:43;39.05;;;18.48;;
787;SDS011;16074;42.708;23.312;2024-01-11T07:24:08;31.40;;;16.85;;
787;SDS011;16074;42.708;23.312;2024-01-11T07:26:34;30.00;;;15.00;;
787;SDS011;16074;42.708;23.312;2024-01-11T07:28:59;33.97;;;17.35;;
787;SDS011;16074;42.708;23.312;2024-01-11T07:31:25;26.52;;;14.07;;
787;SDS011;16074;42.708;23.312;2024-01-11T07:33:50;22.85;;;14.18;;
787;SDS011;16074;42.708;23.312;2024-01-11T07:36:16;18.75;;;10.85;;
787;SDS011;16074;42.708;23.312;2024-01-11T07:38:41;28.50;;;14.00;;
787;SDS011;16074;42.708;23.312;2024-01-11T07:41:07;22.58;;;14.13;;
787;SDS011;16074;42.708;23.312;2024-01-11T07:43:33;32.42;;;16.27;;
787;SDS011;16074;42.708;23.312;2024-01-11T07:46:00;24.60;;;13.00;;
787;SDS011;16074;42.708;23.312;2024-01-11T07:48:27;21.98;;;12.32;;
787;SDS011;16074;42.708;23.312;2024-01-11T07:50:52;27.27;;;15.68;;
787;SDS011;16074;42.708;23.312;2024-01-11T07:53:17;20.17;;;11.50;;
787;SDS011;16074;42.708;23.312;2024-01-11T07:55:43;21.07;;;9.83;;
787;SDS011;16074;42.708;23.312;2024-01-11T07:58:12;19.75;;;11.35;;
787;SDS011;16074;42.708;23.312;2024-01-11T08:00:38;30.40;;;13.63;;
787;SDS011;16074;42.708;23.312;2024-01-11T08:03:04;24.70;;;13.32;;
787;SDS011;16074;42.708;23.312;2024-01-11T08:05:29;18.35;;;10.40;;
787;SDS011;16074;42.708;23.312;2024-01-11T08:07:54;21.70;;;10.73;;
787;SDS011;16074;42.708;23.312;2024-01-11T08:10:20;23.25;;;10.60;;
787;SDS011;16074;42.708;23.312;2024-01-11T08:12:45;21.60;;;11.35;;
787;SDS011;16074;42.708;23.312;2024-01-11T08:15:11;23.95;;;12.23;;
787;SDS011;16074;42.708;23.312;2024-01-11T08:17:37;19.75;;;10.07;;
787;SDS011;16074;42.708;23.312;2024-01-11T08:20:04;20.55;;;10.13;;
787;SDS011;16074;42.708;23.312;2024-01-11T08:22:33;20.55;;;11.82;;
787;SDS011;16074;42.708;23.312;2024-01-11T08:25:01;24.75;;;12.20;;
787;SDS011;16074;42.708;23.312;2024-01-11T08:27:27;29.45;;;14.38;;
787;SDS011;16074;42.708;23.312;2024-01-11T08:29:52;29.08;;;14.68;;
787;SDS011;16074;42.708;23.312;2024-01-11T08:32:17;30.97;;;15.90;;
787;SDS011;16074;42.708;23.312;2024-01-11T08:34:43;31.27;;;17.23;;
787;SDS011;16074;42.708;23.312;2024-01-11T08:37:08;42.15;;;18.63;;
787;SDS011;16074;42.708;23.312;2024-01-11T08:39:34;34.17;;;19.05;;
787;SDS011;16074;42.708;23.312;2024-01-11T08:41:59;36.67;;;20.58;;
787;SDS011;16074;42.708;23.312;2024-01-11T08:44:25;36.35;;;18.25;;
787;SDS011;16074;42.708;23.312;2024-01-11T08:46:50;31.88;;;18.23;;
787;SDS011;16074;42.708;23.312;2024-01-11T08:49:16;38.93;;;20.47;;
787;SDS011;16074;42.708;23.312;2024-01-11T08:51:41;34.13;;;17.23;;
787;SDS011;16074;42.708;23.312;2024-01-11T08:54:06;30.98;;;18.00;;
787;SDS011;16074;42.708;23.312;2024-01-11T08:56:34;37.38;;;17.77;;
787;SDS011;16074;42.708;23.312;2024-01-11T08:59:00;38.55;;;19.45;;
787;SDS011;16074;42.708;23.312;2024-01-11T09:01:25;33.47;;;15.45;;
787;SDS011;16074;42.708;23.312;2024-01-11T09:03:51;34.00;;;17.38;;
787;SDS011;16074;42.708;23.312;2024-01-11T09:06:16;31.25;;;15.88;;
787;SDS011;16074;42.708;23.312;2024-01-11T09:08:41;30.15;;;17.48;;
787;SDS011;16074;42.708;23.312;2024-01-11T09:11:07;36.45;;;19.38;;
787;SDS011;16074;42.708;23.312;2024-01-11T09:13:32;38.55;;;18.45;;
787;SDS011;16074;42.708;23.312;2024-01-11T09:15:58;39.38;;;19.50;;
787;SDS011;16074;42.708;23.312;2024-01-11T09:18:23;36.45;;;18.52;;
787;SDS011;16074;42.708;23.312;2024-01-11T09:20:49;34.08;;;16.75;;
787;SDS011;16074;42.708;23.312;2024-01-11T09:23:14;28.60;;;18.27;;
787;SDS011;16074;42.708;23.312;2024-01-11T09:25:41;37.85;;;20.38;;
787;SDS011;16074;42.708;23.312;2024-01-11T09:28:07;38.25;;;20.30;;
787;SDS011;16074;42.708;23.312;2024-01-11T09:30:32;34.15;;;18.50;;
787;SDS011;16074;42.708;23.312;2024-01-11T09:32:58;30.27;;;18.23;;
787;SDS011;16074;42.708;23.312;2024-01-11T09:35:23;31.65;;;17.38;;
787;SDS011;16074;42.708;23.312;2024-01-11T09:37:49;35.95;;;19.65;;
787;SDS011;16074;42.708;23.312;2024-01-11T09:40:15;31.23;;;18.83;;
787;SDS011;16074;42.708;23.312;2024-01-11T09:42:42;37.17;;;18.42;;
787;SDS011;16074;42.708;23.312;2024-01-11T09:45:09;30.83;;;16.75;;
787;SDS011;16074;42.708;23.312;2024-01-11T09:47:37;39.30;;;19.63;;
787;SDS011;16074;42.708;23.312;2024-01-11T09:50:04;38.05;;;17.80;;
787;SDS011;16074;42.708;23.312;2024-01-11T09:52:29;30.25;;;15.75;;
787;SDS011;16074;42.708;23.312;2024-01-11T09:54:58;31.05;;;16.55;;
787;SDS011;16074;42.708;23.312;2024-01-11T09:57:24;29.35;;;15.45;;
787;SDS011;16074;42.708;23.312;2024-01-11T09:59:54;31.45;;;14.02;;
787;SDS011;16074;42.708;23.312;2024-01-11T10:02:24;30.40;;;16.00;;
787;SDS011;16074;42.708;23.312;2024-01-11T10:04:51;24.15;;;14.35;;
787;SDS011;16074;42.708;23.312;2024-01-11T10:07:18;30.95;;;15.63;;
787;SDS011;16074;42.708;23.312;2024-01-11T10:09:46;27.33;;;13.77;;
787;SDS011;16074;42.708;23.312;2024-01-11T10:12:12;23.50;;;13.75;;
787;SDS011;16074;42.708;23.312;2024-01-11T10:14:38;35.35;;;18.08;;
787;SDS011;16074;42.708;23.312;2024-01-11T10:17:03;25.08;;;14.63;;
787;SDS011;16074;42.708;23.312;2024-01-11T10:19:30;30.00;;;16.02;;
787;SDS011;16074;42.708;23.312;2024-01-11T10:21:56;29.45;;;16.63;;
787;SDS011;16074;42.708;23.312;2024-01-11T10:24:22;27.40;;;14.90;;
787;SDS011;16074;42.708;23.312;2024-01-11T10:26:51;29.83;;;15.32;;
787;SDS011;16074;42.708;23.312;2024-01-11T10:29:16;29.45;;;14.10;;
787;SDS011;16074;42.708;23.312;2024-01-11T10:31:43;28.75;;;15.63;;
787;SDS011;16074;42.708;23.312;2024-01-11T10:34:08;29.30;;;14.48;;
787;SDS011;16074;42.708;23.312;2024-01-11T10:36:34;29.17;;;16.02;;
787;SDS011;16074;42.708;23.312;2024-01-11T10:39:00;29.38;;;15.27;;
787;SDS011;16074;42.708;23.312;2024-01-11T10:41:29;25.33;;;13.88;;
787;SDS011;16074;42.708;23.312;2024-01-11T10:44:02;31.73;;;15.98;;
787;SDS011;16074;42.708;23.312;2024-01-11T10:46:28;23.90;;;14.57;;
787;SDS011;16074;42.708;23.312;2024-01-11T10:48:55;24.25;;;14.60;;
787;SDS011;16074;42.708;23.312;2024-01-11T10:51:24;27.88;;;14.68;;
787;SDS011;16074;42.708;23.312;2024-01-11T10:53:53;24.48;;;12.68;;
787;SDS011;16074;42.708;23.312;2024-01-11T10:56:19;23.20;;;12.45;;
787;SDS011;16074;42.708;23.312;2024-01-11T10:58:45;23.88;;;12.35;;
787;SDS011;16074;42.708;23.312;2024-01-11T11:01:12;20.67;;;12.57;;
787;SDS011;16074;42.708;23.312;2024-01-11T11:03:39;23.85;;;11.55;;
787;SDS011;16074;42.708;23.312;2024-01-11T11:06:08;20.10;;;11.07;;
787;SDS011;16074;42.708;23.312;2024-01-11T11:08:34;17.98;;;10.32;;
787;SDS011;16074;42.708;23.312;2024-01-11T11:11:02;26.75;;;11.65;;
787;SDS011;16074;42.708;23.312;2024-01-11T11:13:30;16.88;;;8.90;;
787;SDS011;16074;42.708;23.312;2024-01-11T11:15:56;22.30;;;10.25;;
787;SDS011;16074;42.708;23.312;2024-01-11T11:18:22;15.35;;;9.23;;
787;SDS011;16074;42.708;23.312;2024-01-11T11:20:49;17.58;;;9.20;;
787;SDS011;16074;42.708;23.312;2024-01-11T11:23:16;25.67;;;11.38;;
787;SDS011;16074;42.708;23.312;2024-01-11T11:25:43;15.63;;;9.20;;
787;SDS011;16074;42.708;23.312;2024-01-11T11:28:13;20.20;;;10.95;;
787;SDS011;16074;42.708;23.312;2024-01-11T11:30:41;30.23;;;9.93;;
787;SDS011;16074;42.708;23.312;2024-01-11T11:33:11;17.17;;;9.35;;
787;SDS011;16074;42.708;23.312;2024-01-11T11:35:48;20.35;;;10.88;;
787;SDS011;16074;42.708;23.312;2024-01-11T11:40:47;16.38;;;9.48;;
787;SDS011;16074;42.708;23.312;2024-01-11T11:43:17;17.60;;;9.23;;
787;SDS011;16074;42.708;23.312;2024-01-11T11:45:43;19.52;;;9.48;;
787;SDS011;16074;42.708;23.312;2024-01-11T11:51:27;12.50;;;8.07;;
787;SDS011;16074;42.708;23.312;2024-01-11T11:53:47;15.10;;;9.18;;
787;SDS011;16074;42.708;23.312;2024-01-11T11:56:14;18.67;;;10.23;;
787;SDS011;16074;42.708;23.312;2024-01-11T11:58:42;21.27;;;11.05;;
787;SDS011;16074;42.708;23.312;2024-01-11T12:01:08;18.63;;;10.50;;
787;SDS011;16074;42.708;23.312;2024-01-11T12:03:37;19.50;;;9.68;;
787;SDS011;16074;42.708;23.312;2024-01-11T12:06:04;16.40;;;10.10;;
787;SDS011;16074;42.708;23.312;2024-01-11T12:08:31;14.77;;;9.45;;
787;SDS011;16074;42.708;23.312;2024-01-11T12:10:57;19.42;;;9.80;;
787;SDS011;16074;42.708;23.312;2024-01-11T12:13:22;17.17;;;9.90;;
787;SDS011;16074;42.708;23.312;2024-01-11T12:15:49;17.58;;;8.82;;
787;SDS011;16074;42.708;23.312;2024-01-11T12:18:14;18.98;;;9.75;;
787;SDS011;16074;42.708;23.312;2024-01-11T12:20:39;14.95;;;8.48;;
787;SDS011;16074;42.708;23.312;2024-01-11T12:23:05;9.30;;;6.38;;
787;SDS011;16074;42.708;23.312;2024-01-11T12:25:31;8.80;;;5.90;;
787;SDS011;16074;42.708;23.312;2024-01-11T12:27:57;9.90;;;5.35;;
787;SDS011;16074;42.708;23.312;2024-01-11T12:30:23;9.98;;;4.88;;
787;SDS011;16074;42.708;23.312;2024-01-11T12:32:58;8.23;;;5.15;;
787;SDS011;16074;42.708;23.312;2024-01-11T12:35:28;13.68;;;5.88;;
787;SDS011;16074;42.708;23.312;2024-01-11T12:38:01;9.68;;;5.53;;
787;SDS011;16074;42.708;23.312;2024-01-11T12:40:34;10.73;;;5.40;;
787;SDS011;16074;42.708;23.312;2024-01-11T12:43:02;10.45;;;5.75;;
787;SDS011;16074;42.708;23.312;2024-01-11T12:45:28;9.52;;;4.18;;
787;SDS011;16074;42.708;23.312;2024-01-11T12:47:54;5.40;;;3.53;;
787;SDS011;16074;42.708;23.312;2024-01-11T12:50:21;9.15;;;4.82;;
787;SDS011;16074;42.708;23.312;2024-01-11T12:53:03;8.55;;;4.43;;
787;SDS011;16074;42.708;23.312;2024-01-11T12:55:32;6.43;;;3.95;;
787;SDS011;16074;42.708;23.312;2024-01-11T12:58:06;9.23;;;4.57;;
787;SDS011;16074;42.708;23.312;2024-01-11T13:00:32;6.78;;;3.85;;
787;SDS011;16074;42.708;23.312;2024-01-11T13:02:58;6.32;;;4.13;;
787;SDS011;16074;42.708;23.312;2024-01-11T13:05:24;6.75;;;4.18;;
787;SDS011;16074;42.708;23.312;2024-01-11T13:07:50;6.40;;;3.67;;
787;SDS011;16074;42.708;23.312;2024-01-11T13:10:15;5.77;;;3.73;;
787;SDS011;16074;42.708;23.312;2024-01-11T13:12:42;7.72;;;3.42;;
787;SDS011;16074;42.708;23.312;2024-01-11T13:15:07;7.20;;;3.92;;
787;SDS011;16074;42.708;23.312;2024-01-11T13:17:33;3.83;;;2.88;;
787;SDS011;16074;42.708;23.312;2024-01-11T13:19:58;5.30;;;3.45;;
787;SDS011;16074;42.708;23.312;2024-01-11T13:22:24;4.97;;;3.17;;
787;SDS011;16074;42.708;23.312;2024-01-11T13:24:50;4.13;;;2.97;;
787;SDS011;16074;42.708;23.312;2024-01-11T13:27:15;7.23;;;4.03;;
787;SDS011;16074;42.708;23.312;2024-01-11T13:29:41;6.22;;;3.28;;
787;SDS011;16074;42.708;23.312;2024-01-11T13:32:06;4.80;;;3.00;;
787;SDS011;16074;42.708;23.312;2024-01-11T13:34:32;6.28;;;2.97;;
787;SDS011;16074;42.708;23.312;2024-01-11T13:36:57;6.22;;;3.90;;
787;SDS011;16074;42.708;23.312;2024-01-11T13:39:24;6.20;;;3.63;;
787;SDS011;16074;42.708;23.312;2024-01-11T13:41:50;6.15;;;3.20;;
787;SDS011;16074;42.708;23.312;2024-01-11T13:44:16;5.65;;;3.25;;
787;SDS011;16074;42.708;23.312;2024-01-11T13:46:41;5.40;;;3.30;;
787;SDS011;16074;42.708;23.312;2024-01-11T13:49:06;5.20;;;3.33;;
787;SDS011;16074;42.708;23.312;2024-01-11T13:51:32;4.95;;;3.08;;
787;SDS011;16074;42.708;23.312;2024-01-11T13:53:57;6.72;;;3.67;;
787;SDS011;16074;42.708;23.312;2024-01-11T13:56:25;5.72;;;3.40;;
787;SDS011;16074;42.708;23.312;2024-01-11T13:58:51;7.03;;;4.05;;
787;SDS011;16074;42.708;23.312;2024-01-11T14:01:17;6.75;;;3.20;;
787;SDS011;16074;42.708;23.312;2024-01-11T14:03:42;4.85;;;3.72;;
787;SDS011;16074;42.708;23.312;2024-01-11T14:06:07;6.28;;;3.70;;
787;SDS011;16074;42.708;23.312;2024-01-11T14:08:33;6.15;;;3.50;;
787;SDS011;16074;42.708;23.312;2024-01-11T14:10:58;7.53;;;4.30;;
787;SDS011;16074;42.708;23.312;2024-01-11T14:13:23;6.88;;;4.60;;
787;SDS011;16074;42.708;23.312;2024-01-11T14:15:49;7.70;;;4.45;;
787;SDS011;16074;42.708;23.312;2024-01-11T14:18:16;7.13;;;4.38;;
787;SDS011;16074;42.708;23.312;2024-01-11T14:20:41;7.22;;;4.13;;
787;SDS011;16074;42.708;23.312;2024-01-11T14:23:07;10.73;;;3.90;;
787;SDS011;16074;42.708;23.312;2024-01-11T14:25:33;13.80;;;4.93;;
787;SDS011;16074;42.708;23.312;2024-01-11T14:27:59;6.95;;;4.60;;
787;SDS011;16074;42.708;23.312;2024-01-11T14:30:25;6.93;;;4.18;;
787;SDS011;16074;42.708;23.312;2024-01-11T14:32:51;10.88;;;4.47;;
787;SDS011;16074;42.708;23.312;2024-01-11T14:35:16;7.47;;;4.63;;
787;SDS011;16074;42.708;23.312;2024-01-11T14:37:42;7.38;;;4.05;;
787;SDS011;16074;42.708;23.312;2024-01-11T14:40:09;7.53;;;4.18;;
787;SDS011;16074;42.708;23.312;2024-01-11T14:42:35;9.60;;;5.15;;